NCAR-RAP Real-Time Weather Data

Output produced by METARs form (08 May 2021  00:47 UTC)
found at http://weather.rap.ucar.edu/surface/
 
KEWN 072354Z 33005KT 10SM CLR 13/10 A2990 RMK AO2 SLP125 60001 T01330100 10211 20133 53013
KEWN 072254Z 33010KT 10SM SCT100 15/10 A2987 RMK AO2 PK WND 30030/2155 RAE17 SLP116 P0000 T01500100
KEWN 072229Z 33008KT 10SM FEW045 FEW070 BKN095 15/11 A2986 RMK AO2 PK WND 30030/2155 LTG DSNT E RAE17 P0000 T01500106
KEWN 072154Z 30016G33KT 7SM VCTS RA FEW047 BKN065 15/09 A2987 RMK AO2 PK WND 28033/2148 LTG DSNT E RAB48 PRESRR SLP114 P0001 T01500094
KEWN 072152Z 30018G33KT 8SM VCTS -RA FEW049 BKN065 15/09 A2986 RMK AO2 PK WND 28033/2148 LTG DSNT W RAB48 PRESRR P0000
KEWN 072054Z 29012G23KT 10SM SCT090 19/08 A2982 RMK AO2 LTG DSNT SW SLP097 T01940083 55005
KEWN 071954Z 31011KT 10SM SCT070 BKN085 20/07 A2981 RMK AO2 SLP096 T02000072
KEWN 071854Z 28005KT 10SM FEW120 21/08 A2982 RMK AO2 SLP098 T02110083
KEWN 071754Z 08007KT 10SM FEW031 SCT100 18/10 A2983 RMK AO2 SLP102 60001 T01830100 10189 20150 58016
KEWN 071654Z 06005KT 10SM FEW055 BKN090 16/09 A2986 RMK AO2 RAE45 SLP112 P0001 T01610089
KEWN 071554Z 29008KT 10SM -RA FEW047 BKN070 OVC090 17/09 A2991 RMK AO2 LTG DSNT S RAB50 SLP128 P0000 T01720094
KEWN 071454Z 01009KT 10SM FEW039 BKN110 18/09 A2988 RMK AO2 SLP118 T01830089 55000
KEWN 071354Z 04007KT 10SM BKN090 18/11 A2987 RMK AO2 SLP114 T01830111
KEWN 071254Z 07009KT 10SM CLR 17/11 A2987 RMK AO2 SLP115 T01670111
KEWN 071154Z 07008KT 10SM SCT100 16/11 A2988 RMK AO2 SLP118 T01560106 10156 20122 55001
KEWN 071054Z 08004KT 10SM CLR 13/12 A2988 RMK AO2 SLP117 T01330117
KEWN 070954Z 07003KT 10SM CLR 13/11 A2988 RMK AO2 SLP119 T01330106
KEWN 070854Z AUTO 04003KT 10SM CLR 14/11 A2988 RMK AO2 SLP119 T01390111 56016